sensor_id;sensor_type;location;lat;lon;timestamp;temperature;humidity
480;DHT22;226;48.606;9.096;2022-10-17T00:00:44;12.40;90.00
480;DHT22;226;48.606;9.096;2022-10-17T00:03:12;13.20;90.30
480;DHT22;226;48.606;9.096;2022-10-17T00:05:43;13.30;90.30
480;DHT22;226;48.606;9.096;2022-10-17T00:08:12;12.60;90.20
480;DHT22;226;48.606;9.096;2022-10-17T00:10:41;12.10;88.10
480;DHT22;226;48.606;9.096;2022-10-17T00:13:10;13.30;89.40
480;DHT22;226;48.606;9.096;2022-10-17T00:15:42;12.90;88.70
480;DHT22;226;48.606;9.096;2022-10-17T00:18:10;13.00;88.60
480;DHT22;226;48.606;9.096;2022-10-17T00:20:38;12.10;88.70
480;DHT22;226;48.606;9.096;2022-10-17T00:23:08;13.40;89.90
480;DHT22;226;48.606;9.096;2022-10-17T00:25:36;12.70;89.60
480;DHT22;226;48.606;9.096;2022-10-17T00:28:04;12.90;89.30
480;DHT22;226;48.606;9.096;2022-10-17T00:30:32;12.00;88.20
480;DHT22;226;48.606;9.096;2022-10-17T00:33:00;13.30;89.60
480;DHT22;226;48.606;9.096;2022-10-17T00:35:28;11.70;89.40
480;DHT22;226;48.606;9.096;2022-10-17T00:37:56;12.50;90.40
480;DHT22;226;48.606;9.096;2022-10-17T00:40:25;12.00;92.60
480;DHT22;226;48.606;9.096;2022-10-17T00:42:53;12.70;93.50
480;DHT22;226;48.606;9.096;2022-10-17T00:45:23;11.60;92.90
480;DHT22;226;48.606;9.096;2022-10-17T00:47:55;12.00;94.30
480;DHT22;226;48.606;9.096;2022-10-17T00:50:25;11.90;94.50
480;DHT22;226;48.606;9.096;2022-10-17T00:52:54;11.90;94.60
480;DHT22;226;48.606;9.096;2022-10-17T00:55:29;12.70;95.20
480;DHT22;226;48.606;9.096;2022-10-17T00:58:00;11.90;94.50
480;DHT22;226;48.606;9.096;2022-10-17T01:00:30;11.80;93.40
480;DHT22;226;48.606;9.096;2022-10-17T01:02:58;12.60;93.30
480;DHT22;226;48.606;9.096;2022-10-17T01:05:26;12.20;92.60
480;DHT22;226;48.606;9.096;2022-10-17T01:07:54;12.20;92.00
480;DHT22;226;48.606;9.096;2022-10-17T01:10:29;11.80;91.70
480;DHT22;226;48.606;9.096;2022-10-17T01:13:05;11.60;91.90
480;DHT22;226;48.606;9.096;2022-10-17T01:15:47;12.50;92.50
480;DHT22;226;48.606;9.096;2022-10-17T01:18:26;11.80;90.60
480;DHT22;226;48.606;9.096;2022-10-17T01:33:29;11.60;90.10
480;DHT22;226;48.606;9.096;2022-10-17T01:36:02;11.70;87.30
480;DHT22;226;48.606;9.096;2022-10-17T01:38:34;11.70;90.30
480;DHT22;226;48.606;9.096;2022-10-17T01:41:08;11.50;89.00
480;DHT22;226;48.606;9.096;2022-10-17T01:43:43;12.80;90.00
480;DHT22;226;48.606;9.096;2022-10-17T01:46:19;12.40;89.50
480;DHT22;226;48.606;9.096;2022-10-17T01:48:51;11.90;89.40
480;DHT22;226;48.606;9.096;2022-10-17T01:51:22;11.40;90.00
480;DHT22;226;48.606;9.096;2022-10-17T01:53:53;12.10;91.10
480;DHT22;226;48.606;9.096;2022-10-17T01:56:25;12.30;91.30
480;DHT22;226;48.606;9.096;2022-10-17T01:58:59;12.80;91.90
480;DHT22;226;48.606;9.096;2022-10-17T02:01:28;11.50;91.60
480;DHT22;226;48.606;9.096;2022-10-17T02:04:00;12.00;91.90
480;DHT22;226;48.606;9.096;2022-10-17T02:06:33;11.50;91.50
480;DHT22;226;48.606;9.096;2022-10-17T02:09:16;12.30;91.90
480;DHT22;226;48.606;9.096;2022-10-17T02:11:51;11.30;91.40
480;DHT22;226;48.606;9.096;2022-10-17T02:14:28;12.00;91.50
480;DHT22;226;48.606;9.096;2022-10-17T02:17:03;12.20;91.50
480;DHT22;226;48.606;9.096;2022-10-17T02:19:45;11.70;91.00
480;DHT22;226;48.606;9.096;2022-10-17T02:22:24;11.20;90.10
480;DHT22;226;48.606;9.096;2022-10-17T02:24:59;12.10;90.50
480;DHT22;226;48.606;9.096;2022-10-17T02:27:35;12.20;90.50
480;DHT22;226;48.606;9.096;2022-10-17T02:30:09;11.10;98.00
480;DHT22;226;48.606;9.096;2022-10-17T02:32:42;11.20;88.30
480;DHT22;226;48.606;9.096;2022-10-17T02:35:19;12.20;88.50
480;DHT22;226;48.606;9.096;2022-10-17T02:37:48;11.60;88.60
480;DHT22;226;48.606;9.096;2022-10-17T02:40:20;11.10;90.20
480;DHT22;226;48.606;9.096;2022-10-17T02:42:50;11.90;90.80
480;DHT22;226;48.606;9.096;2022-10-17T02:45:19;12.50;91.80
480;DHT22;226;48.606;9.096;2022-10-17T02:47:54;12.00;92.20
480;DHT22;226;48.606;9.096;2022-10-17T02:50:29;11.10;90.50
480;DHT22;226;48.606;9.096;2022-10-17T02:53:03;11.60;90.90
480;DHT22;226;48.606;9.096;2022-10-17T02:55:37;11.40;90.70
480;DHT22;226;48.606;9.096;2022-10-17T02:58:09;12.00;90.80
480;DHT22;226;48.606;9.096;2022-10-17T03:00:39;11.00;90.30
480;DHT22;226;48.606;9.096;2022-10-17T03:03:18;11.90;90.80
480;DHT22;226;48.606;9.096;2022-10-17T03:05:48;11.30;90.20
480;DHT22;226;48.606;9.096;2022-10-17T03:08:16;11.50;90.10
480;DHT22;226;48.606;9.096;2022-10-17T03:10:44;10.90;87.60
480;DHT22;226;48.606;9.096;2022-10-17T03:13:12;11.40;86.50
480;DHT22;226;48.606;9.096;2022-10-17T03:15:41;12.60;87.50
480;DHT22;226;48.606;9.096;2022-10-17T03:18:09;11.30;86.80
480;DHT22;226;48.606;9.096;2022-10-17T03:20:36;10.80;86.20
480;DHT22;226;48.606;9.096;2022-10-17T03:23:06;11.20;86.90
480;DHT22;226;48.606;9.096;2022-10-17T03:25:34;11.80;89.10
480;DHT22;226;48.606;9.096;2022-10-17T03:28:02;11.90;90.20
480;DHT22;226;48.606;9.096;2022-10-17T03:30:31;11.30;90.50
480;DHT22;226;48.606;9.096;2022-10-17T03:32:59;10.70;90.20
480;DHT22;226;48.606;9.096;2022-10-17T03:35:27;11.30;90.40
480;DHT22;226;48.606;9.096;2022-10-17T03:37:56;11.30;90.40
480;DHT22;226;48.606;9.096;2022-10-17T03:40:25;10.70;90.30
480;DHT22;226;48.606;9.096;2022-10-17T03:42:53;11.50;90.50
480;DHT22;226;48.606;9.096;2022-10-17T03:45:21;11.30;90.20
480;DHT22;226;48.606;9.096;2022-10-17T03:47:49;10.90;88.70
480;DHT22;226;48.606;9.096;2022-10-17T03:50:17;10.60;87.80
480;DHT22;226;48.606;9.096;2022-10-17T03:52:45;10.40;87.70
480;DHT22;226;48.606;9.096;2022-10-17T03:55:14;11.20;89.00
480;DHT22;226;48.606;9.096;2022-10-17T03:57:43;10.60;90.70
480;DHT22;226;48.606;9.096;2022-10-17T04:00:12;10.50;99.90
480;DHT22;226;48.606;9.096;2022-10-17T04:02:40;10.50;91.10
480;DHT22;226;48.606;9.096;2022-10-17T04:05:08;11.60;91.30
480;DHT22;226;48.606;9.096;2022-10-17T04:07:36;10.60;90.70
480;DHT22;226;48.606;9.096;2022-10-17T04:10:05;10.20;97.30
480;DHT22;226;48.606;9.096;2022-10-17T04:12:33;10.40;89.10
480;DHT22;226;48.606;9.096;2022-10-17T04:15:03;11.60;90.00
480;DHT22;226;48.606;9.096;2022-10-17T04:17:31;10.50;90.10
480;DHT22;226;48.606;9.096;2022-10-17T04:20:04;10.30;96.80
480;DHT22;226;48.606;9.096;2022-10-17T04:22:32;10.50;88.20
480;DHT22;226;48.606;9.096;2022-10-17T04:25:00;10.80;90.00
480;DHT22;226;48.606;9.096;2022-10-17T04:27:28;10.90;90.50
480;DHT22;226;48.606;9.096;2022-10-17T04:32:26;10.10;88.50
480;DHT22;226;48.606;9.096;2022-10-17T04:34:54;10.60;90.20
480;DHT22;226;48.606;9.096;2022-10-17T04:37:22;10.50;89.50
480;DHT22;226;48.606;9.096;2022-10-17T04:39:50;10.90;89.20
480;DHT22;226;48.606;9.096;2022-10-17T04:42:18;10.20;88.70
480;DHT22;226;48.606;9.096;2022-10-17T04:44:46;10.60;88.60
480;DHT22;226;48.606;9.096;2022-10-17T04:47:14;11.30;88.40
480;DHT22;226;48.606;9.096;2022-10-17T04:49:43;10.70;88.10
480;DHT22;226;48.606;9.096;2022-10-17T04:52:11;10.20;88.10
480;DHT22;226;48.606;9.096;2022-10-17T04:54:39;10.60;87.90
480;DHT22;226;48.606;9.096;2022-10-17T04:57:07;11.10;86.50
480;DHT22;226;48.606;9.096;2022-10-17T04:59:35;11.00;87.10
480;DHT22;226;48.606;9.096;2022-10-17T05:02:03;10.30;87.50
480;DHT22;226;48.606;9.096;2022-10-17T05:04:31;10.40;88.20
480;DHT22;226;48.606;9.096;2022-10-17T05:07:00;10.30;88.90
480;DHT22;226;48.606;9.096;2022-10-17T05:09:29;11.40;89.40
480;DHT22;226;48.606;9.096;2022-10-17T05:11:57;10.20;87.00
480;DHT22;226;48.606;9.096;2022-10-17T05:14:25;10.60;87.60
480;DHT22;226;48.606;9.096;2022-10-17T05:16:53;10.50;87.50
480;DHT22;226;48.606;9.096;2022-10-17T05:19:21;10.50;87.90
480;DHT22;226;48.606;9.096;2022-10-17T05:21:49;10.00;86.90
480;DHT22;226;48.606;9.096;2022-10-17T05:24:18;10.00;87.90
480;DHT22;226;48.606;9.096;2022-10-17T05:26:48;10.40;89.00
480;DHT22;226;48.606;9.096;2022-10-17T05:29:17;10.80;89.40
480;DHT22;226;48.606;9.096;2022-10-17T05:31:44;10.10;88.20
480;DHT22;226;48.606;9.096;2022-10-17T05:34:12;11.30;88.20
480;DHT22;226;48.606;9.096;2022-10-17T05:36:40;11.20;89.50
480;DHT22;226;48.606;9.096;2022-10-17T05:39:09;10.70;88.20
480;DHT22;226;48.606;9.096;2022-10-17T05:41:40;10.20;87.80
480;DHT22;226;48.606;9.096;2022-10-17T05:44:08;10.70;88.60
480;DHT22;226;48.606;9.096;2022-10-17T05:46:36;11.10;88.50
480;DHT22;226;48.606;9.096;2022-10-17T05:49:04;10.80;88.20
480;DHT22;226;48.606;9.096;2022-10-17T05:51:45;10.20;87.00
480;DHT22;226;48.606;9.096;2022-10-17T05:54:13;10.60;87.30
480;DHT22;226;48.606;9.096;2022-10-17T05:56:42;11.30;86.30
480;DHT22;226;48.606;9.096;2022-10-17T05:59:10;11.20;86.50
480;DHT22;226;48.606;9.096;2022-10-17T06:01:38;10.20;85.80
480;DHT22;226;48.606;9.096;2022-10-17T06:04:06;11.10;87.30
480;DHT22;226;48.606;9.096;2022-10-17T06:06:35;10.50;87.30
480;DHT22;226;48.606;9.096;2022-10-17T06:09:03;10.70;88.40
480;DHT22;226;48.606;9.096;2022-10-17T06:11:31;10.20;87.20
480;DHT22;226;48.606;9.096;2022-10-17T06:14:00;10.60;86.00
480;DHT22;226;48.606;9.096;2022-10-17T06:16:29;10.70;85.90
480;DHT22;226;48.606;9.096;2022-10-17T06:18:56;11.10;86.40
480;DHT22;226;48.606;9.096;2022-10-17T06:21:26;10.20;87.70
480;DHT22;226;48.606;9.096;2022-10-17T06:23:54;10.80;89.40
480;DHT22;226;48.606;9.096;2022-10-17T06:26:22;10.40;90.40
480;DHT22;226;48.606;9.096;2022-10-17T06:28:50;10.30;90.80
480;DHT22;226;48.606;9.096;2022-10-17T06:31:20;10.20;91.10
480;DHT22;226;48.606;9.096;2022-10-17T06:33:48;11.20;91.30
480;DHT22;226;48.606;9.096;2022-10-17T06:36:16;10.70;90.00
480;DHT22;226;48.606;9.096;2022-10-17T06:38:44;10.50;90.10
480;DHT22;226;48.606;9.096;2022-10-17T06:41:13;10.30;89.80
480;DHT22;226;48.606;9.096;2022-10-17T06:43:42;11.00;90.00
480;DHT22;226;48.606;9.096;2022-10-17T06:46:14;10.80;90.30
480;DHT22;226;48.606;9.096;2022-10-17T06:48:43;10.30;90.00
480;DHT22;226;48.606;9.096;2022-10-17T06:51:11;10.50;90.50
480;DHT22;226;48.606;9.096;2022-10-17T06:53:40;10.90;90.70
480;DHT22;226;48.606;9.096;2022-10-17T06:56:09;10.80;89.90
480;DHT22;226;48.606;9.096;2022-10-17T06:58:38;11.60;90.40
480;DHT22;226;48.606;9.096;2022-10-17T07:01:07;10.80;90.60
480;DHT22;226;48.606;9.096;2022-10-17T07:03:36;11.10;90.60
480;DHT22;226;48.606;9.096;2022-10-17T07:06:06;11.30;90.80
480;DHT22;226;48.606;9.096;2022-10-17T07:08:34;11.60;91.30
480;DHT22;226;48.606;9.096;2022-10-17T07:11:08;11.10;90.70
480;DHT22;226;48.606;9.096;2022-10-17T07:13:37;11.70;90.80
480;DHT22;226;48.606;9.096;2022-10-17T07:16:05;11.70;90.70
480;DHT22;226;48.606;9.096;2022-10-17T07:18:34;11.30;90.60
480;DHT22;226;48.606;9.096;2022-10-17T07:21:02;11.40;91.60
480;DHT22;226;48.606;9.096;2022-10-17T07:23:31;11.50;91.50
480;DHT22;226;48.606;9.096;2022-10-17T07:26:04;12.70;92.00
480;DHT22;226;48.606;9.096;2022-10-17T07:28:33;11.70;91.50
480;DHT22;226;48.606;9.096;2022-10-17T07:31:05;11.90;91.10
480;DHT22;226;48.606;9.096;2022-10-17T07:33:33;12.10;90.90
480;DHT22;226;48.606;9.096;2022-10-17T07:36:02;13.00;90.50
480;DHT22;226;48.606;9.096;2022-10-17T07:38:32;12.80;90.30
480;DHT22;226;48.606;9.096;2022-10-17T07:41:02;12.40;90.50
480;DHT22;226;48.606;9.096;2022-10-17T07:43:30;13.10;90.80
480;DHT22;226;48.606;9.096;2022-10-17T07:46:00;13.50;91.10
480;DHT22;226;48.606;9.096;2022-10-17T07:48:28;13.10;90.70
480;DHT22;226;48.606;9.096;2022-10-17T07:50:56;12.80;90.40
480;DHT22;226;48.606;9.096;2022-10-17T07:53:24;14.00;90.50
480;DHT22;226;48.606;9.096;2022-10-17T07:55:54;14.10;90.70
480;DHT22;226;48.606;9.096;2022-10-17T07:58:21;13.90;90.50
480;DHT22;226;48.606;9.096;2022-10-17T08:00:49;13.40;86.70
480;DHT22;226;48.606;9.096;2022-10-17T08:03:18;13.50;86.80
480;DHT22;226;48.606;9.096;2022-10-17T08:05:46;13.90;88.70
480;DHT22;226;48.606;9.096;2022-10-17T08:08:14;14.40;88.10
480;DHT22;226;48.606;9.096;2022-10-17T08:10:42;14.30;88.30
480;DHT22;226;48.606;9.096;2022-10-17T08:13:11;14.80;88.40
480;DHT22;226;48.606;9.096;2022-10-17T08:15:39;15.10;88.90
480;DHT22;226;48.606;9.096;2022-10-17T08:18:07;14.90;87.50
480;DHT22;226;48.606;9.096;2022-10-17T08:20:36;14.70;86.20
480;DHT22;226;48.606;9.096;2022-10-17T08:23:04;14.80;86.10
480;DHT22;226;48.606;9.096;2022-10-17T08:25:32;15.40;85.80
480;DHT22;226;48.606;9.096;2022-10-17T08:28:00;16.30;87.00
480;DHT22;226;48.606;9.096;2022-10-17T08:30:29;15.50;83.10
480;DHT22;226;48.606;9.096;2022-10-17T08:32:57;16.10;83.30
480;DHT22;226;48.606;9.096;2022-10-17T08:35:25;15.50;80.80
480;DHT22;226;48.606;9.096;2022-10-17T08:37:53;16.00;77.10
480;DHT22;226;48.606;9.096;2022-10-17T08:40:24;16.20;72.80
480;DHT22;226;48.606;9.096;2022-10-17T08:45:52;16.50;67.40
480;DHT22;226;48.606;9.096;2022-10-17T08:48:23;17.10;69.30
480;DHT22;226;48.606;9.096;2022-10-17T08:50:54;17.10;64.20
480;DHT22;226;48.606;9.096;2022-10-17T08:53:28;17.20;64.80
480;DHT22;226;48.606;9.096;2022-10-17T08:56:01;17.40;64.50
480;DHT22;226;48.606;9.096;2022-10-17T08:58:35;17.50;60.00
480;DHT22;226;48.606;9.096;2022-10-17T09:01:11;17.60;76.50
480;DHT22;226;48.606;9.096;2022-10-17T09:03:48;17.60;79.30
480;DHT22;226;48.606;9.096;2022-10-17T09:06:20;17.60;79.30
480;DHT22;226;48.606;9.096;2022-10-17T09:09:06;17.90;78.30
480;DHT22;226;48.606;9.096;2022-10-17T09:11:55;18.20;76.40
480;DHT22;226;48.606;9.096;2022-10-17T09:14:54;18.30;72.10
480;DHT22;226;48.606;9.096;2022-10-17T09:17:33;18.40;67.70
480;DHT22;226;48.606;9.096;2022-10-17T09:20:08;18.40;71.00
480;DHT22;226;48.606;9.096;2022-10-17T09:22:40;18.50;71.10
480;DHT22;226;48.606;9.096;2022-10-17T09:25:12;18.60;70.50
480;DHT22;226;48.606;9.096;2022-10-17T09:27:43;18.70;70.30
480;DHT22;226;48.606;9.096;2022-10-17T09:30:37;18.90;65.10
480;DHT22;226;48.606;9.096;2022-10-17T09:33:15;18.90;64.50
480;DHT22;226;48.606;9.096;2022-10-17T09:36:03;19.10;68.30
480;DHT22;226;48.606;9.096;2022-10-17T09:38:37;19.20;69.00
480;DHT22;226;48.606;9.096;2022-10-17T09:41:12;19.20;68.20
480;DHT22;226;48.606;9.096;2022-10-17T09:44:13;19.40;69.70
480;DHT22;226;48.606;9.096;2022-10-17T09:46:44;19.50;69.70
480;DHT22;226;48.606;9.096;2022-10-17T09:49:18;19.50;67.20
480;DHT22;226;48.606;9.096;2022-10-17T09:51:47;19.00;65.60
480;DHT22;226;48.606;9.096;2022-10-17T09:54:19;19.40;65.30
480;DHT22;226;48.606;9.096;2022-10-17T09:56:59;19.70;65.70
480;DHT22;226;48.606;9.096;2022-10-17T09:59:30;19.80;65.70
480;DHT22;226;48.606;9.096;2022-10-17T10:02:14;19.80;64.30
480;DHT22;226;48.606;9.096;2022-10-17T10:04:59;19.90;63.90
480;DHT22;226;48.606;9.096;2022-10-17T10:07:33;20.00;61.40
480;DHT22;226;48.606;9.096;2022-10-17T10:10:02;20.00;60.60
480;DHT22;226;48.606;9.096;2022-10-17T10:12:33;20.30;61.20
480;DHT22;226;48.606;9.096;2022-10-17T10:15:01;20.40;62.30
480;DHT22;226;48.606;9.096;2022-10-17T10:17:51;20.20;59.70
480;DHT22;226;48.606;9.096;2022-10-17T10:20:32;20.40;61.00
480;DHT22;226;48.606;9.096;2022-10-17T10:23:06;20.40;57.00
480;DHT22;226;48.606;9.096;2022-10-17T10:25:35;20.60;60.50
480;DHT22;226;48.606;9.096;2022-10-17T10:28:09;20.60;59.20
480;DHT22;226;48.606;9.096;2022-10-17T10:30:37;20.60;57.50
480;DHT22;226;48.606;9.096;2022-10-17T10:33:10;20.60;57.80
480;DHT22;226;48.606;9.096;2022-10-17T10:35:40;20.60;57.60
480;DHT22;226;48.606;9.096;2022-10-17T10:38:10;20.50;58.60
480;DHT22;226;48.606;9.096;2022-10-17T10:40:45;20.40;59.50
480;DHT22;226;48.606;9.096;2022-10-17T10:43:22;20.50;60.10
480;DHT22;226;48.606;9.096;2022-10-17T10:45:51;20.50;59.70
480;DHT22;226;48.606;9.096;2022-10-17T10:48:21;20.70;58.90
480;DHT22;226;48.606;9.096;2022-10-17T10:50:54;20.60;59.70
480;DHT22;226;48.606;9.096;2022-10-17T10:53:30;20.70;60.30
480;DHT22;226;48.606;9.096;2022-10-17T10:56:04;20.60;59.60
480;DHT22;226;48.606;9.096;2022-10-17T10:58:43;20.90;60.40
480;DHT22;226;48.606;9.096;2022-10-17T11:01:20;20.40;59.00
480;DHT22;226;48.606;9.096;2022-10-17T11:04:05;20.10;57.20
480;DHT22;226;48.606;9.096;2022-10-17T11:06:40;20.80;56.90
480;DHT22;226;48.606;9.096;2022-10-17T11:09:15;20.90;56.20
480;DHT22;226;48.606;9.096;2022-10-17T11:11:49;20.70;56.50
480;DHT22;226;48.606;9.096;2022-10-17T11:14:22;21.00;56.50
480;DHT22;226;48.606;9.096;2022-10-17T11:16:59;21.00;56.00
480;DHT22;226;48.606;9.096;2022-10-17T11:19:34;21.10;55.80
480;DHT22;226;48.606;9.096;2022-10-17T11:22:11;21.50;53.80
480;DHT22;226;48.606;9.096;2022-10-17T11:24:45;21.50;54.30
480;DHT22;226;48.606;9.096;2022-10-17T11:27:15;21.60;53.70
480;DHT22;226;48.606;9.096;2022-10-17T11:29:43;21.90;52.30
480;DHT22;226;48.606;9.096;2022-10-17T11:32:16;21.80;51.60
480;DHT22;226;48.606;9.096;2022-10-17T11:34:48;21.90;53.20
480;DHT22;226;48.606;9.096;2022-10-17T11:37:21;21.90;49.70
480;DHT22;226;48.606;9.096;2022-10-17T11:39:52;21.90;50.20
480;DHT22;226;48.606;9.096;2022-10-17T11:42:26;22.20;49.80
480;DHT22;226;48.606;9.096;2022-10-17T11:44:59;22.40;50.30
480;DHT22;226;48.606;9.096;2022-10-17T11:47:37;22.70;47.00
480;DHT22;226;48.606;9.096;2022-10-17T11:50:19;22.90;44.90
480;DHT22;226;48.606;9.096;2022-10-17T11:53:13;22.90;42.80
480;DHT22;226;48.606;9.096;2022-10-17T11:55:42;23.10;46.30
480;DHT22;226;48.606;9.096;2022-10-17T11:58:21;23.00;43.90
480;DHT22;226;48.606;9.096;2022-10-17T12:00:55;23.10;41.90
480;DHT22;226;48.606;9.096;2022-10-17T12:03:48;23.30;42.50
480;DHT22;226;48.606;9.096;2022-10-17T12:06:29;23.80;40.80
480;DHT22;226;48.606;9.096;2022-10-17T12:09:03;23.40;40.70
480;DHT22;226;48.606;9.096;2022-10-17T12:11:41;23.90;40.70
480;DHT22;226;48.606;9.096;2022-10-17T12:14:35;23.60;40.50
480;DHT22;226;48.606;9.096;2022-10-17T12:17:04;23.50;38.60
480;DHT22;226;48.606;9.096;2022-10-17T12:19:34;23.40;41.30
480;DHT22;226;48.606;9.096;2022-10-17T12:22:11;23.50;41.90
480;DHT22;226;48.606;9.096;2022-10-17T12:24:54;23.50;42.90
480;DHT22;226;48.606;9.096;2022-10-17T12:27:40;23.50;41.80
480;DHT22;226;48.606;9.096;2022-10-17T12:30:21;23.50;38.90
480;DHT22;226;48.606;9.096;2022-10-17T12:33:01;23.30;43.00
480;DHT22;226;48.606;9.096;2022-10-17T12:35:34;23.60;43.60
480;DHT22;226;48.606;9.096;2022-10-17T12:38:26;23.70;42.80
480;DHT22;226;48.606;9.096;2022-10-17T12:41:00;23.60;41.20
480;DHT22;226;48.606;9.096;2022-10-17T12:43:55;23.80;38.70
480;DHT22;226;48.606;9.096;2022-10-17T12:46:48;23.90;37.00
480;DHT22;226;48.606;9.096;2022-10-17T12:49:22;23.80;38.50
480;DHT22;226;48.606;9.096;2022-10-17T12:55:05;23.70;32.40
480;DHT22;226;48.606;9.096;2022-10-17T12:57:57;23.70;38.00
480;DHT22;226;48.606;9.096;2022-10-17T13:00:31;23.70;37.10
480;DHT22;226;48.606;9.096;2022-10-17T13:03:07;23.80;37.10
480;DHT22;226;48.606;9.096;2022-10-17T13:05:40;23.70;36.10
480;DHT22;226;48.606;9.096;2022-10-17T13:08:15;23.80;36.90
480;DHT22;226;48.606;9.096;2022-10-17T13:10:46;23.80;36.60
480;DHT22;226;48.606;9.096;2022-10-17T13:13:21;23.70;35.00
480;DHT22;226;48.606;9.096;2022-10-17T13:15:53;23.90;36.40
480;DHT22;226;48.606;9.096;2022-10-17T13:18:23;23.80;34.80
480;DHT22;226;48.606;9.096;2022-10-17T13:20:59;23.80;35.70
480;DHT22;226;48.606;9.096;2022-10-17T13:23:34;24.10;35.60
480;DHT22;226;48.606;9.096;2022-10-17T19:16:48;14.70;98.20
480;DHT22;226;48.606;9.096;2022-10-17T19:19:19;14.70;97.90
480;DHT22;226;48.606;9.096;2022-10-17T19:21:47;14.60;98.20
480;DHT22;226;48.606;9.096;2022-10-17T19:24:18;14.70;98.00
480;DHT22;226;48.606;9.096;2022-10-17T19:26:47;14.40;98.00
480;DHT22;226;48.606;9.096;2022-10-17T19:29:17;14.30;98.40
480;DHT22;226;48.606;9.096;2022-10-17T19:31:47;14.40;98.60
480;DHT22;226;48.606;9.096;2022-10-17T19:34:16;14.40;99.00
480;DHT22;226;48.606;9.096;2022-10-17T19:36:44;14.40;99.10
480;DHT22;226;48.606;9.096;2022-10-17T19:39:14;14.70;99.70
480;DHT22;226;48.606;9.096;2022-10-17T19:41:44;14.20;98.70
480;DHT22;226;48.606;9.096;2022-10-17T19:44:12;14.10;99.30
480;DHT22;226;48.606;9.096;2022-10-17T19:46:40;14.00;99.90
480;DHT22;226;48.606;9.096;2022-10-17T19:49:11;13.90;99.90
480;DHT22;226;48.606;9.096;2022-10-17T19:51:40;13.90;99.90
480;DHT22;226;48.606;9.096;2022-10-17T19:54:08;14.80;99.90
480;DHT22;226;48.606;9.096;2022-10-17T19:56:36;14.10;99.90
480;DHT22;226;48.606;9.096;2022-10-17T19:59:05;13.90;99.90
480;DHT22;226;48.606;9.096;2022-10-17T20:01:35;13.90;99.90
480;DHT22;226;48.606;9.096;2022-10-17T20:04:04;13.90;99.90
480;DHT22;226;48.606;9.096;2022-10-17T20:06:34;13.90;99.90
480;DHT22;226;48.606;9.096;2022-10-17T20:09:03;13.90;99.90
480;DHT22;226;48.606;9.096;2022-10-17T20:11:31;14.00;99.90
480;DHT22;226;48.606;9.096;2022-10-17T20:14:00;14.00;99.90
480;DHT22;226;48.606;9.096;2022-10-17T20:16:29;14.00;99.90
480;DHT22;226;48.606;9.096;2022-10-17T20:19:03;14.00;99.80
480;DHT22;226;48.606;9.096;2022-10-17T20:21:31;13.80;99.90
480;DHT22;226;48.606;9.096;2022-10-17T20:24:04;13.60;99.90
480;DHT22;226;48.606;9.096;2022-10-17T20:26:33;13.50;99.90
480;DHT22;226;48.606;9.096;2022-10-17T20:29:08;13.50;99.90
480;DHT22;226;48.606;9.096;2022-10-17T20:31:38;14.10;99.90
480;DHT22;226;48.606;9.096;2022-10-17T20:34:06;13.60;99.90
480;DHT22;226;48.606;9.096;2022-10-17T20:36:34;13.90;99.90
480;DHT22;226;48.606;9.096;2022-10-17T20:39:05;13.50;99.90
480;DHT22;226;48.606;9.096;2022-10-17T20:41:34;14.10;99.90
480;DHT22;226;48.606;9.096;2022-10-17T20:44:02;13.60;99.90
480;DHT22;226;48.606;9.096;2022-10-17T20:46:30;13.40;99.90
480;DHT22;226;48.606;9.096;2022-10-17T20:49:06;13.60;99.90
480;DHT22;226;48.606;9.096;2022-10-17T20:51:34;13.60;99.90
480;DHT22;226;48.606;9.096;2022-10-17T20:54:04;13.60;99.90
480;DHT22;226;48.606;9.096;2022-10-17T20:56:33;13.60;99.90
480;DHT22;226;48.606;9.096;2022-10-17T20:59:03;13.60;99.90
480;DHT22;226;48.606;9.096;2022-10-17T21:01:33;13.40;99.90
480;DHT22;226;48.606;9.096;2022-10-17T21:04:02;13.30;99.90
480;DHT22;226;48.606;9.096;2022-10-17T21:06:51;13.70;99.90
480;DHT22;226;48.606;9.096;2022-10-17T21:09:21;13.20;99.90
480;DHT22;226;48.606;9.096;2022-10-17T21:11:49;13.20;99.90
480;DHT22;226;48.606;9.096;2022-10-17T21:14:21;13.30;99.90
480;DHT22;226;48.606;9.096;2022-10-17T21:16:50;13.30;99.90
480;DHT22;226;48.606;9.096;2022-10-17T21:19:19;13.30;99.90
480;DHT22;226;48.606;9.096;2022-10-17T21:21:48;14.20;99.90
480;DHT22;226;48.606;9.096;2022-10-17T21:24:16;13.30;99.90
480;DHT22;226;48.606;9.096;2022-10-17T21:26:49;13.40;99.90
480;DHT22;226;48.606;9.096;2022-10-17T21:29:22;13.50;99.90
480;DHT22;226;48.606;9.096;2022-10-17T21:31:50;13.40;99.20
480;DHT22;226;48.606;9.096;2022-10-17T21:34:19;13.30;98.90
480;DHT22;226;48.606;9.096;2022-10-17T21:36:47;13.20;99.00
480;DHT22;226;48.606;9.096;2022-10-17T21:39:16;13.40;98.90
480;DHT22;226;48.606;9.096;2022-10-17T21:41:44;13.20;98.50
480;DHT22;226;48.606;9.096;2022-10-17T21:44:14;13.20;98.10
480;DHT22;226;48.606;9.096;2022-10-17T21:46:43;13.20;98.70
480;DHT22;226;48.606;9.096;2022-10-17T21:49:13;12.90;99.20
480;DHT22;226;48.606;9.096;2022-10-17T21:51:42;13.90;99.90
480;DHT22;226;48.606;9.096;2022-10-17T21:54:10;13.60;99.90
480;DHT22;226;48.606;9.096;2022-10-17T21:56:39;13.20;99.90
480;DHT22;226;48.606;9.096;2022-10-17T21:59:07;13.00;99.90
480;DHT22;226;48.606;9.096;2022-10-17T22:01:39;13.00;99.90
480;DHT22;226;48.606;9.096;2022-10-17T22:04:11;13.90;99.90
480;DHT22;226;48.606;9.096;2022-10-17T22:06:42;12.90;99.90
480;DHT22;226;48.606;9.096;2022-10-17T22:09:12;13.60;99.90
480;DHT22;226;48.606;9.096;2022-10-17T22:11:42;13.00;99.90
480;DHT22;226;48.606;9.096;2022-10-17T22:14:12;13.20;99.90
480;DHT22;226;48.606;9.096;2022-10-17T22:19:13;12.90;99.40
480;DHT22;226;48.606;9.096;2022-10-17T22:21:42;12.90;99.90
480;DHT22;226;48.606;9.096;2022-10-17T22:24:12;12.90;99.90
480;DHT22;226;48.606;9.096;2022-10-17T22:26:40;12.90;99.90
480;DHT22;226;48.606;9.096;2022-10-17T22:29:10;12.90;99.90
480;DHT22;226;48.606;9.096;2022-10-17T22:31:38;12.70;99.90
480;DHT22;226;48.606;9.096;2022-10-17T22:34:10;12.60;99.90
480;DHT22;226;48.606;9.096;2022-10-17T22:36:39;13.70;99.90
480;DHT22;226;48.606;9.096;2022-10-17T22:39:08;13.30;99.90
480;DHT22;226;48.606;9.096;2022-10-17T22:41:36;12.60;99.90
480;DHT22;226;48.606;9.096;2022-10-17T22:44:04;13.30;99.90
480;DHT22;226;48.606;9.096;2022-10-17T22:46:32;13.00;99.90
480;DHT22;226;48.606;9.096;2022-10-17T22:49:00;12.70;99.90
480;DHT22;226;48.606;9.096;2022-10-17T22:51:29;12.70;99.50
480;DHT22;226;48.606;9.096;2022-10-17T22:53:57;12.60;99.30
480;DHT22;226;48.606;9.096;2022-10-17T22:56:25;12.60;99.70
480;DHT22;226;48.606;9.096;2022-10-17T22:58:53;12.50;98.10
480;DHT22;226;48.606;9.096;2022-10-17T23:01:23;12.60;98.10
480;DHT22;226;48.606;9.096;2022-10-17T23:03:52;13.50;98.60
480;DHT22;226;48.606;9.096;2022-10-17T23:06:20;12.60;98.30
480;DHT22;226;48.606;9.096;2022-10-17T23:08:50;12.60;98.40
480;DHT22;226;48.606;9.096;2022-10-17T23:11:18;12.50;99.10
480;DHT22;226;48.606;9.096;2022-10-17T23:13:47;12.50;98.90
480;DHT22;226;48.606;9.096;2022-10-17T23:16:15;12.50;98.90